• Join FlightAware (Why Join?)
  • Login
  • US Flag 
02:21PM EDT


 

Airport Tracker/Info


-or-


 

Live Flight TrackerFlight Track Log ✈ N851MA ✈ 19-Mar-2014 ✈ KLBF - KAID

Flight Track Log - Related Links

Times and Time Zones

All times are in EDT time to prevent confusion due to time zone crossing. See the N851MA flight status page for this flight to view local times or setup timezone preferences in your user account.

Time Position Orientation Groundspeed Altitude Reporting Facility
EDT Latitude Longitude Course Direction KTS MPH feet Rate Location/Type
03:55PM 41.1039 -100.6600 91° East 177 204 4,800  Level Denver Center
03:56PM 41.1033 -100.5886 91° East 199 229 5,400 720 Climbing Denver Center
03:57PM 41.1072 -100.5014 87° East 205 236 6,300 960 Climbing Denver Center
03:58PM 41.1089 -100.4256 88° East 214 246 7,500 1,440 Climbing Denver Center
03:59PM 41.1108 -100.3533 88° East 209 241 9,300 1,560 Climbing Denver Center
04:00PM 41.1097 -100.2731 91° East 199 229 11,100 1,620 Climbing Denver Center
04:01PM 41.1186 -100.1808 83° East 198 228 13,000 1,680 Climbing Denver Center
04:02PM 41.1217 -100.1036 87° East 214 246 14,600 1,620 Climbing Denver Center
04:03PM 41.1186 -100.0136 93° East 217 250 16,400 1,500 Climbing Denver Center
04:04PM 41.1208 -99.9303 88° East 229 264 17,800 1,500 Climbing Denver Center
04:05PM 41.1181 -99.8322 92° East 236 272 19,600 1,620 Climbing Denver Center
04:06PM 41.1181 -99.7444 90° East 245 282 21,200 1,440 Climbing Denver Center
04:07PM 41.1167 -99.6556 91° East 250 288 22,600 1,440 Climbing Denver Center
04:09PM 41.1158 -99.5481 91° East 257 296 24,200 1,440 Climbing Denver Center
04:10PM 41.1136 -99.4428 92° East 263 303 25,600 1,200 Climbing Denver Center
04:11PM 41.1133 -99.3414 90° East 270 311 26,800 1,020 Climbing Denver Center
04:12PM 41.1103 -99.2394 92° East 274 315 27,800 960 Climbing Denver Center
04:13PM 41.1097 -99.1356 90° East 280 322 28,800 780 Climbing Denver Center
04:14PM 41.1081 -99.0272 91° East 280 322 29,500 720 Climbing Denver Center
04:15PM 41.1053 -98.9067 92° East 289 333 30,300 600 Climbing Denver Center
04:16PM 41.1039 -98.8003 91° East 296 341 30,800 300 Climbing Denver Center
04:17PM 41.1025 -98.6853 91° East 306 352 31,000 60 Climbing Denver Center
04:18PM 41.0992 -98.5628 92° East 326 375 31,000  Level Denver Center
04:19PM 41.0975 -98.4356 91° East 341 392 31,000  Level Denver Center
04:20PM 41.0931 -98.2278 92° East 351 404 31,000  Level Minneapolis Center
04:21PM 41.0906 -98.0958 91° East 354 407 31,000  Level Minneapolis Center
04:22PM 41.0864 -97.9650 92° East 354 407 31,000  Level Minneapolis Center
04:23PM 41.0836 -97.8336 92° East 354 407 31,000  Level Minneapolis Center
04:24PM 41.0803 -97.7044 92° East 354 407 31,000  Level Minneapolis Center
04:25PM 41.0750 -97.5736 93° East 354 407 31,000  Level Minneapolis Center
04:27PM 41.0714 -97.4181 92° East 354 407 31,000  Level Minneapolis Center
04:28PM 41.0686 -97.3019 92° East 354 407 31,000  Level Minneapolis Center
04:29PM 41.0639 -97.1731 93° East 354 407 31,000  Level Minneapolis Center
04:30PM 41.0603 -97.0186 92° East 353 406 31,000  Level Minneapolis Center
04:31PM 41.0544 -96.8894 93° East 353 406 31,000  Level Minneapolis Center
04:32PM 41.0503 -96.7608 92° East 353 406 31,000  Level Minneapolis Center
04:33PM 41.0458 -96.6322 93° East 352 405 31,000  Level Minneapolis Center
04:34PM 41.0422 -96.5047 92° East 352 405 31,000  Level Minneapolis Center
04:35PM 41.0358 -96.3767 94° East 352 405 31,000  Level Minneapolis Center
04:36PM 41.0294 -96.2225 93° East 352 405 31,000  Level Minneapolis Center
04:37PM 41.0250 -96.0942 93° East 352 405 31,000  Level Minneapolis Center
04:38PM 41.0206 -95.9661 93° East 352 405 31,000  Level Minneapolis Center
04:39PM 41.0147 -95.8369 93° East 352 405 31,000  Level Minneapolis Center
04:40PM 41.0081 -95.6797 93° East 355 409 31,000  Level Minneapolis Center
04:41PM 41.0017 -95.5486 94° East 355 409 31,000  Level Minneapolis Center
04:42PM 40.9950 -95.4164 94° East 357 411 31,000  Level Minneapolis Center
04:43PM 40.9886 -95.2839 94° East 358 412 31,000  Level Minneapolis Center
04:44PM 40.9822 -95.1497 94° East 362 417 31,000  Level Minneapolis Center
04:45PM 40.9742 -95.0139 94° East 366 421 31,000  Level Minneapolis Center
04:46PM 40.9672 -94.8506 93° East 367 422 31,000  Level Minneapolis Center
04:47PM 40.9594 -94.7139 94° East 368 423 31,000  Level Minneapolis Center
04:48PM 40.9511 -94.5772 95° East 371 427 31,000  Level Minneapolis Center
04:49PM 40.9436 -94.4364 94° East 374 430 31,000  Level Minneapolis Center
04:50PM 40.9361 -94.2969 94° East 379 436 31,000  Level Minneapolis Center
04:51PM 40.9264 -94.1572 95° East 379 436 31,000  Level Minneapolis Center
04:52PM 40.9169 -93.9892 94° East 380 437 31,000  Level Minneapolis Center
04:53PM 40.9078 -93.8497 95° East 380 437 31,000  Level Minneapolis Center
04:54PM 40.8989 -93.7081 95° East 384 442 31,000  Level Minneapolis Center
04:55PM 40.8908 -93.5686 94° East 384 442 31,000  Level Minneapolis Center
04:57PM 40.8831 -93.4275 94° East 384 442 31,000  Level Minneapolis Center
04:58PM 40.8719 -93.2583 95° East 385 443 31,000  Level Chicago Center
04:59PM 40.8617 -93.1192 96° East 383 441 31,000  Level Chicago Center
05:00PM 40.8544 -92.9825 94° East 376 433 31,000  Level Chicago Center
05:01PM 40.8450 -92.8439 95° East 379 436 31,000  Level Chicago Center
05:02PM 40.8317 -92.6797 96° East 375 432 31,000  Level Chicago Center
05:02PM 40.8258 -92.5981 95° East 374 430 31,000  Level Chicago Center
05:03PM 40.8175 -92.4586 94° East 378 435 31,000  Level Chicago Center
05:04PM 40.8069 -92.3214 96° East 377 434 31,000  Level Chicago Center
05:05PM 40.7969 -92.1847 95° East 376 433 31,000  Level Chicago Center
05:07PM 40.7864 -92.0486 96° East 375 432 31,000  Level Chicago Center
05:08PM 40.7758 -91.9106 96° East 377 434 31,000  Level Chicago Center
05:09PM 40.7631 -91.7456 96° East 378 435 31,000  Level Chicago Center
05:10PM 40.7522 -91.6072 96° East 381 438 31,000  Level Chicago Center
05:11PM 40.7400 -91.4672 97° East 383 441 31,000  Level Chicago Center
05:12PM 40.7294 -91.3294 96° East 381 438 31,000  Level Chicago Center
05:13PM 40.7175 -91.1736 96° East 385 443 31,000  Level Chicago Center
05:14PM 40.7044 -91.0347 97° East 382 440 31,000  Level Chicago Center
05:15PM 40.6936 -90.8953 96° East 384 442 31,000  Level Chicago Center
05:16PM 40.6811 -90.7553 97° East 385 443 31,000  Level Chicago Center
05:17PM 40.6683 -90.6158 97° East 385 443 31,000  Level Chicago Center
05:18PM 40.6517 -90.4483 97° East 386 444 31,000  Level Chicago Center
05:19PM 40.6394 -90.3092 97° East 385 443 31,000  Level Chicago Center
05:20PM 40.6261 -90.1531 96° East 385 443 31,000  Level Chicago Center
05:21PM 40.6117 -90.0147 98° East 385 443 31,000  Level Chicago Center
05:22PM 40.5992 -89.8756 97° East 386 444 31,000  Level Chicago Center
05:23PM 40.5861 -89.7372 97° East 383 441 31,000  Level Chicago Center
05:24PM 40.5717 -89.6003 98° East 382 440 31,000  Level Chicago Center
05:25PM 40.5575 -89.4558 97° East 384 442 31,000  Level Chicago Center
05:26PM 40.5447 -89.3169 97° East 385 443 31,000  Level Chicago Center
05:27PM 40.5272 -89.1489 98° East 387 445 31,000  Level Chicago Center
05:28PM 40.5131 -89.0122 98° East 382 440 31,000  Level Chicago Center
05:29PM 40.4978 -88.8725 98° East 386 444 31,000  Level Chicago Center
05:30PM 40.4825 -88.7181 97° East 382 440 31,000  Level Chicago Center
05:31PM 40.4678 -88.5800 98° East 384 442 31,000  Level Chicago Center
05:32PM 40.4525 -88.4408 98° East 386 444 31,000  Level Chicago Center
05:33PM 40.4375 -88.3022 98° East 388 447 31,000  Level Chicago Center
05:34PM 40.4228 -88.1631 98° East 389 448 31,000 -180 Level Chicago Center
05:35PM 40.4042 -87.9956 98° East 391 450 30,700 -780 Descending Chicago Center
05:37PM 40.3850 -87.8503 100° East 407 468 29,400 -1,260 Descending Chicago Center
05:38PM 40.3703 -87.6986 97° East 420 483 28,100 -1,320 Descending Chicago Center
05:39PM 40.3550 -87.5486 98° East 419 482 26,700 -1,620 Descending Chicago Center
05:40PM 40.3344 -87.3875 99° East 411 473 24,800 -1,800 Descending Chicago Center
05:41PM 40.3156 -87.2419 100° East 406 467 23,000 -1,680 Descending Chicago Center
05:42PM 40.2972 -87.1014 100° East 396 456 21,400 -1,680 Descending Chicago Center
05:43PM 40.2836 -86.9689 98° East 373 429 19,500 -2,040 Descending Chicago Center
05:44PM 40.2619 -86.8192 101° East 353 406 17,200 -2,160 Descending Chicago Center
05:44PM 40.2589 -86.7950 99° East 350 403 16,900 -1,560 Descending Chicago Center
05:45PM 40.2469 -86.6808 98° East 321 369 15,300 -1,560 Descending Chicago Center
05:46PM 40.2314 -86.5714 101° East 309 356 13,700 -1,560 Descending Chicago Center
05:47PM 40.2178 -86.4669 100° East 295 339 12,100 -1,380 Descending Chicago Center
05:48PM 40.2058 -86.3672 99° East 281 323 10,900 -1,200 Descending Chicago Center
05:49PM 40.1950 -86.2733 99° East 266 306 9,600 -1,440 Descending Chicago Center
05:50PM 40.1817 -86.1628 99° East 259 298 8,000 -1,380 Descending Chicago Center
05:51PM 40.1689 -86.0733 101° East 253 291 6,800 -1,140 Descending Chicago Center
05:52PM 40.1547 -85.9847 102° East 250 288 5,700 -1,080 Descending Chicago Center
05:53PM 40.1308 -85.9003 110° East 248 285 4,600 -840 Descending Chicago Center
05:54PM 40.1039 -85.8217 114° Southeast 243 280 4,000 -300 Descending Chicago Center
05:55PM 40.0781 -85.7547 117° Southeast 227 261 4,000 -300 Level Chicago Center
05:56PM 40.0553 -85.6906 115° Southeast 210 242 3,500 -540 Descending Chicago Center
05:57PM 40.0228 -85.6078 117° Southeast 208 239 3,000 -420 Descending Chicago Center
05:58PM 40.0175 -85.5950 118° Southeast 208 239 3,000  Level Chicago Center
05:59PM 39.9931 -85.5306 116° Southeast 205 236 3,000  Level Chicago Center
06:00PM 39.9681 -85.4622 116° Southeast 200 230 3,000  Level Chicago Center
06:01PM 40.0219 -85.4261 27° Northeast 181 208 3,100  Climbing Indianapolis Center
06:02PM 40.0481 -85.4442 332° Northwest 155 178 3,100 -120 Level Indianapolis Center
06:03PM 40.0597 -85.4800 293° West 125 144 2,900 -240 Descending Indianapolis Center
06:04PM 40.0711 -85.5117 295° West 108 124 2,700 -480 Descending Indianapolis Center
06:05PM 40.0850 -85.5472 297° West 99 114 2,000 -480 Descending Indianapolis Center
06:06PM 40.0944 -85.5711 297° West 87 100 1,800 -240 Descending Indianapolis Center
06:07PM 40.1022 -85.5911 297° West 84 97 1,600 -240 Descending Indianapolis Center